createdAt,value
2019-02-14T00:01:15.446Z,102949.65
2019-02-14T00:03:43.723Z,102951.43
2019-02-14T00:06:11.984Z,102951.00
2019-02-14T00:08:40.245Z,102956.20
2019-02-14T00:11:08.506Z,102962.27
2019-02-14T00:13:36.773Z,102960.11
2019-02-14T00:16:05.034Z,102967.92
2019-02-14T00:18:33.317Z,102967.05
2019-02-14T00:21:01.584Z,102970.95
2019-02-14T00:23:29.855Z,102954.91
2019-02-14T00:25:58.113Z,102957.95
2019-02-14T00:28:26.386Z,102961.42
2019-02-14T00:30:54.645Z,102958.81
2019-02-14T00:33:22.898Z,102956.23
2019-02-14T00:35:51.168Z,102950.59
2019-02-14T00:38:19.423Z,102953.19
2019-02-14T00:40:47.679Z,102958.82
2019-02-14T00:43:15.942Z,102961.86
2019-02-14T00:45:44.204Z,102971.82
2019-02-14T00:48:12.490Z,102970.56
2019-02-14T00:50:40.741Z,102970.56
2019-02-14T00:53:08.994Z,102970.13
2019-02-14T00:55:37.244Z,102955.83
2019-02-14T00:58:05.505Z,102946.30
2019-02-14T01:00:33.836Z,102942.83
2019-02-14T01:03:02.113Z,102941.95
2019-02-14T01:05:33.625Z,102938.50
2019-02-14T01:08:00.400Z,102938.50
2019-02-14T01:10:28.662Z,102948.89
2019-02-14T01:12:56.932Z,102951.02
2019-02-14T01:18:14.151Z,102966.23
2019-02-14T01:20:42.405Z,102963.63
2019-02-14T01:23:10.666Z,102954.97
2019-02-14T01:25:38.925Z,102953.67
2019-02-14T01:28:07.203Z,102955.41
2019-02-14T01:30:35.461Z,102947.17
2019-02-14T01:33:03.718Z,102940.71
2019-02-14T01:35:31.993Z,102934.65
2019-02-14T01:38:00.248Z,102936.78
2019-02-14T01:40:28.508Z,102935.47
2019-02-14T01:42:56.770Z,102935.91
2019-02-14T01:45:25.043Z,102938.94
2019-02-14T01:47:53.302Z,102930.75
2019-02-14T01:50:21.572Z,102919.92
2019-02-14T01:52:49.838Z,102921.66
2019-02-14T01:55:18.102Z,102903.91
2019-02-14T01:57:46.366Z,102890.05
2019-02-14T02:03:03.752Z,102888.31
2019-02-14T02:05:32.008Z,102891.78
2019-02-14T02:08:00.279Z,102900.00
2019-02-14T02:11:02.643Z,102897.41
2019-02-14T02:13:30.918Z,102899.58
2019-02-14T02:15:59.177Z,102886.58
2019-02-14T02:21:16.407Z,102910.44
2019-02-14T02:23:44.665Z,102905.24
2019-02-14T02:26:13.092Z,102910.44
2019-02-14T02:28:41.355Z,102911.30
2019-02-14T02:31:09.623Z,102917.36
2019-02-14T02:33:38.886Z,102913.03
2019-02-14T02:36:07.163Z,102907.41
2019-02-14T02:38:35.427Z,102926.02
2019-02-14T02:41:03.685Z,102929.48
2019-02-14T02:43:31.947Z,102930.36
2019-02-14T02:46:00.235Z,102931.22
2019-02-14T02:48:28.497Z,102942.91
2019-02-14T02:50:56.755Z,102939.45
2019-02-14T02:53:25.032Z,102949.41
2019-02-14T02:55:53.292Z,102938.58
2019-02-14T02:58:21.554Z,102952.87
2019-02-14T03:00:49.816Z,102943.78
2019-02-14T03:03:18.073Z,102940.75
2019-02-14T03:05:46.338Z,102937.71
2019-02-14T03:08:14.641Z,102951.59
2019-02-14T03:10:42.888Z,102939.47
2019-02-14T03:13:11.147Z,102954.59
2019-02-14T03:15:52.252Z,102977.13
2019-02-14T03:18:20.509Z,102977.13
2019-02-14T03:20:48.773Z,102978.44
2019-02-14T03:23:17.048Z,102972.35
2019-02-14T03:25:45.305Z,102963.28
2019-02-14T03:28:13.560Z,102960.23
2019-02-14T03:33:20.783Z,102945.08
2019-02-14T03:35:49.053Z,102961.11
2019-02-14T03:38:17.311Z,102955.05
2019-02-14T03:40:45.561Z,102968.89
2019-02-14T03:43:13.829Z,102968.91
2019-02-14T03:45:42.394Z,102966.71
2019-02-14T03:48:10.665Z,102958.94
2019-02-14T03:50:38.943Z,102960.20
2019-02-14T03:53:07.210Z,102962.84
2019-02-14T03:55:35.470Z,102966.69
2019-02-14T03:58:03.741Z,102966.74
2019-02-14T04:00:31.995Z,102966.74
2019-02-14T04:03:00.256Z,102954.63
2019-02-14T04:05:28.531Z,102960.24
2019-02-14T04:07:56.775Z,102964.58
2019-02-14T04:10:25.048Z,102961.93
2019-02-14T04:12:53.307Z,102962.40
2019-02-14T04:15:21.569Z,102961.48
2019-02-14T04:17:49.831Z,102961.55
2019-02-14T04:20:18.107Z,102975.39
2019-02-14T04:22:46.368Z,102960.66
2019-02-14T04:25:14.626Z,102954.61
2019-02-14T04:27:42.876Z,102960.69
2019-02-14T04:30:51.186Z,102966.29
2019-02-14T04:33:19.443Z,102989.66
2019-02-14T04:35:47.727Z,102985.36
2019-02-14T04:38:15.978Z,102991.41
2019-02-14T04:40:44.233Z,102997.48
2019-02-14T04:43:12.508Z,103006.58
2019-02-14T04:45:40.763Z,103006.58
2019-02-14T04:48:09.027Z,103002.64
2019-02-14T04:50:37.301Z,102998.32
2019-02-14T04:53:05.567Z,102992.27
2019-02-14T04:55:33.835Z,102992.28
2019-02-14T04:58:02.094Z,102995.30
2019-02-14T05:00:30.357Z,102996.59
2019-02-14T05:02:58.614Z,102994.41
2019-02-14T05:05:26.870Z,102987.51
2019-02-14T05:07:55.127Z,102976.25
2019-02-14T05:10:23.396Z,102974.02
2019-02-14T05:12:51.658Z,102964.07
2019-02-14T05:15:19.936Z,102972.73
2019-02-14T05:17:48.194Z,102985.34
2019-02-14T05:20:16.456Z,102990.96
2019-02-14T05:22:44.720Z,102984.91
2019-02-14T05:25:12.996Z,102984.91
2019-02-14T05:27:41.236Z,102987.00
2019-02-14T05:30:28.846Z,102986.14
2019-02-14T05:32:57.108Z,102993.94
2019-02-14T05:35:25.378Z,102989.61
2019-02-14T05:37:53.640Z,102995.66
2019-02-14T05:40:21.919Z,102989.19
2019-02-14T05:42:50.186Z,102992.63
2019-02-14T05:45:18.451Z,102991.78
2019-02-14T05:47:46.703Z,103005.70
2019-02-14T05:50:54.993Z,103003.50
2019-02-14T05:53:23.284Z,103004.81
2019-02-14T05:55:51.568Z,102991.77
2019-02-14T05:58:19.841Z,102989.61
2019-02-14T06:00:48.100Z,102984.85
2019-02-14T06:03:16.371Z,102991.34
2019-02-14T06:05:44.622Z,102988.73
2019-02-14T06:08:12.896Z,102982.27
2019-02-14T06:10:41.171Z,102984.86
2019-02-14T06:13:09.428Z,102982.24
2019-02-14T06:15:37.703Z,102990.47
2019-02-14T06:18:05.975Z,102989.19
2019-02-14T06:20:34.229Z,103001.30
2019-02-14T06:23:02.501Z,103001.30
2019-02-14T06:25:30.753Z,103004.76
2019-02-14T06:27:59.013Z,103002.16
2019-02-14T06:30:27.267Z,103008.23
2019-02-14T06:32:55.534Z,103014.33
2019-02-14T06:35:23.794Z,103026.45
2019-02-14T06:40:53.621Z,103040.73
2019-02-14T06:43:21.908Z,103039.81
2019-02-14T06:45:50.156Z,103039.38
2019-02-14T06:48:18.417Z,103039.00
2019-02-14T06:50:46.681Z,103038.58
2019-02-14T06:53:14.945Z,103051.55
2019-02-14T06:55:43.202Z,103051.55
2019-02-14T06:58:12.807Z,103054.14
2019-02-14T07:00:41.443Z,103055.89
2019-02-14T07:03:09.693Z,103062.41
2019-02-14T07:05:37.963Z,103063.72
2019-02-14T07:08:06.225Z,103068.48
2019-02-14T07:10:46.710Z,103053.75
2019-02-14T07:13:14.966Z,103052.86
2019-02-14T07:15:43.233Z,103052.84
2019-02-14T07:18:11.511Z,103052.78
2019-02-14T07:20:39.781Z,103063.58
2019-02-14T07:23:08.039Z,103068.75
2019-02-14T07:25:36.331Z,103083.06
2019-02-14T07:28:04.557Z,103091.73
2019-02-14T07:31:06.647Z,103089.21
2019-02-14T07:33:34.901Z,103093.05
2019-02-14T07:36:03.157Z,103093.48
2019-02-14T07:38:31.422Z,103093.09
2019-02-14T07:40:59.690Z,103084.39
2019-02-14T07:43:27.962Z,103076.64
2019-02-14T07:45:56.265Z,103069.29
2019-02-14T07:48:24.535Z,103066.28
2019-02-14T07:50:52.794Z,103064.11
2019-02-14T07:53:21.058Z,103068.87
2019-02-14T07:55:49.329Z,103066.27
2019-02-14T07:58:17.597Z,103064.95
2019-02-14T08:00:45.861Z,103060.20
2019-02-14T08:03:14.149Z,103056.75
2019-02-14T08:05:42.419Z,103046.78
2019-02-14T08:08:10.677Z,103056.74
2019-02-14T08:10:38.937Z,103058.47
2019-02-14T08:13:07.204Z,103063.69
2019-02-14T08:15:35.500Z,103067.17
2019-02-14T08:18:03.841Z,103067.19
2019-02-14T08:20:32.085Z,103072.80
2019-02-14T08:23:00.351Z,103071.06
2019-02-14T08:25:48.013Z,103061.55
2019-02-14T08:28:16.280Z,103061.55
2019-02-14T08:30:44.541Z,103071.95
2019-02-14T08:33:12.804Z,103062.41
2019-02-14T08:35:41.069Z,103061.98
2019-02-14T08:38:09.333Z,103059.39
2019-02-14T08:40:37.592Z,103060.69
2019-02-14T08:43:05.858Z,103071.97
2019-02-14T08:45:34.114Z,103068.48
2019-02-14T08:48:02.501Z,103068.05
2019-02-14T08:50:30.780Z,103073.25
2019-02-14T08:52:59.036Z,103068.05
2019-02-14T08:55:27.291Z,103070.22
2019-02-14T08:57:55.557Z,103064.16
2019-02-14T09:00:23.820Z,103062.86
2019-02-14T09:02:52.070Z,103052.02
2019-02-14T09:05:20.342Z,103057.66
2019-02-14T09:07:54.776Z,103056.34
2019-02-14T09:10:18.592Z,103065.01
2019-02-14T09:12:46.854Z,103064.58
2019-02-14T09:15:26.714Z,103064.16
2019-02-14T09:17:54.973Z,103068.48
2019-02-14T09:20:23.220Z,103061.55
2019-02-14T09:22:51.475Z,103059.38
2019-02-14T09:25:19.740Z,103056.78
2019-02-14T09:27:47.990Z,103054.19
2019-02-14T09:30:16.320Z,103054.16
2019-02-14T09:32:44.577Z,103050.69
2019-02-14T09:35:52.869Z,103050.66
2019-02-14T09:38:21.139Z,103047.63
2019-02-14T09:40:49.386Z,103044.16
2019-02-14T09:43:17.640Z,103039.38
2019-02-14T09:45:45.892Z,103039.81
2019-02-14T09:48:15.185Z,103030.28
2019-02-14T09:50:43.448Z,103016.83
2019-02-14T09:53:11.700Z,103022.90
2019-02-14T09:55:39.955Z,103023.77
2019-02-14T09:58:08.216Z,103027.23
2019-02-14T10:00:36.470Z,103029.77
2019-02-14T10:03:04.764Z,103035.42
2019-02-14T10:05:33.010Z,103031.14
2019-02-14T10:08:01.275Z,103028.59
2019-02-14T10:10:29.530Z,103025.98
2019-02-14T10:12:57.773Z,103020.36
2019-02-14T10:15:26.035Z,103022.04
2019-02-14T10:17:54.306Z,103018.56
2019-02-14T10:20:22.562Z,103024.62
2019-02-14T10:22:50.804Z,103015.97
2019-02-14T10:25:19.078Z,103019.01
2019-02-14T10:28:06.670Z,103019.37
2019-02-14T10:30:34.942Z,103019.37
2019-02-14T10:33:03.179Z,103017.56
2019-02-14T10:35:31.450Z,103019.70
2019-02-14T10:37:59.703Z,103019.63
2019-02-14T10:40:27.972Z,103017.43
2019-02-14T10:42:56.233Z,103024.43
2019-02-14T10:45:24.554Z,103028.76
2019-02-14T10:47:52.820Z,103024.83
2019-02-14T10:50:21.079Z,103027.88
2019-02-14T10:52:49.352Z,103026.02
2019-02-14T10:55:17.615Z,103024.27
2019-02-14T10:57:45.870Z,103026.49
2019-02-14T11:00:33.468Z,103029.09
2019-02-14T11:03:01.717Z,103019.52
2019-02-14T11:05:29.973Z,103019.84
2019-02-14T11:07:58.236Z,103030.24
2019-02-14T11:10:26.498Z,103029.78
2019-02-14T11:12:54.750Z,103025.88
2019-02-14T11:16:03.036Z,103024.88
2019-02-14T11:18:31.312Z,103025.34
2019-02-14T11:20:59.575Z,103025.20
2019-02-14T11:23:27.843Z,103027.19
2019-02-14T11:25:56.118Z,103022.39
2019-02-14T11:28:24.358Z,103026.71
2019-02-14T11:30:52.606Z,103015.84
2019-02-14T11:33:20.926Z,103023.72
2019-02-14T11:35:49.132Z,103030.56
2019-02-14T11:38:17.389Z,103026.27
2019-02-14T11:40:45.642Z,103020.91
2019-02-14T11:43:13.909Z,103012.16
2019-02-14T11:45:42.167Z,103023.77
2019-02-14T11:48:10.434Z,103010.73
2019-02-14T11:50:38.693Z,103007.59
2019-02-14T11:53:13.901Z,103003.63
2019-02-14T11:55:36.926Z,103012.59
2019-02-14T11:58:05.172Z,103003.81
2019-02-14T12:00:33.434Z,102995.63
2019-02-14T12:03:01.703Z,102999.84
2019-02-14T12:05:29.977Z,102990.58
2019-02-14T12:07:58.226Z,102987.03
2019-02-14T12:10:26.507Z,102981.98
2019-02-14T12:12:54.759Z,102981.02
2019-02-14T12:18:24.581Z,102973.59
2019-02-14T12:20:52.837Z,102970.95
2019-02-14T12:23:21.084Z,102965.96
2019-02-14T12:25:49.344Z,102962.63
2019-02-14T12:28:36.941Z,102954.55
2019-02-14T12:31:05.217Z,102954.55
2019-02-14T12:33:33.486Z,102948.30
2019-02-14T12:36:01.756Z,102941.68
2019-02-14T12:38:30.018Z,102939.22
2019-02-14T12:40:58.269Z,102936.53
2019-02-14T12:43:26.547Z,102934.08
2019-02-14T12:45:54.802Z,102927.23
2019-02-14T12:48:23.071Z,102927.53
2019-02-14T12:50:51.336Z,102918.33
2019-02-14T12:53:19.596Z,102930.91
2019-02-14T12:55:47.927Z,102927.25
2019-02-14T12:58:16.181Z,102929.01
2019-02-14T13:00:44.444Z,102922.83
2019-02-14T13:03:12.732Z,102928.09
2019-02-14T13:05:41.006Z,102934.44
2019-02-14T13:08:09.278Z,102923.91
2019-02-14T13:10:37.533Z,102927.41
2019-02-14T13:13:05.801Z,102919.14
2019-02-14T13:15:34.124Z,102913.94
2019-02-14T13:18:02.396Z,102916.34
2019-02-14T13:20:30.660Z,102907.16
2019-02-14T13:22:59.237Z,102914.44
2019-02-14T13:25:27.507Z,102909.55
2019-02-14T13:27:55.774Z,102902.81
2019-02-14T13:30:43.411Z,102896.94
2019-02-14T13:33:11.646Z,102906.39
2019-02-14T13:35:39.897Z,102909.23
2019-02-14T13:38:27.497Z,102906.78
2019-02-14T13:40:55.763Z,102906.78
2019-02-14T13:43:25.855Z,102900.52
2019-02-14T13:45:54.104Z,102899.47
2019-02-14T13:48:22.366Z,102897.84
2019-02-14T13:50:50.616Z,102901.31
2019-02-14T13:53:18.880Z,102911.80
2019-02-14T13:55:47.147Z,102912.24
2019-02-14T13:58:15.410Z,102913.33
2019-02-14T14:00:43.723Z,102908.63
2019-02-14T14:03:11.973Z,102916.36
2019-02-14T14:05:40.300Z,102912.75
2019-02-14T14:08:08.551Z,102913.23
2019-02-14T14:10:36.832Z,102906.23
2019-02-14T14:13:05.112Z,102910.98
2019-02-14T14:15:33.375Z,102898.85
2019-02-14T14:18:20.988Z,102908.75
2019-02-14T14:20:49.267Z,102912.62
2019-02-14T14:23:17.531Z,102913.14
2019-02-14T14:25:45.790Z,102917.61
2019-02-14T14:28:14.059Z,102908.92
2019-02-14T14:30:42.316Z,102916.72
2019-02-14T14:33:10.578Z,102914.03
2019-02-14T14:35:38.841Z,102912.59
2019-02-14T14:38:07.097Z,102915.56
2019-02-14T14:40:35.363Z,102918.37
2019-02-14T14:48:50.876Z,102920.95
2019-02-14T14:51:19.162Z,102924.38
2019-02-14T14:53:47.420Z,102926.13
2019-02-14T14:56:15.681Z,102926.58
2019-02-14T14:58:45.573Z,102924.94
2019-02-14T15:01:13.936Z,102929.02
2019-02-14T15:03:42.543Z,102933.72
2019-02-14T15:06:10.799Z,102932.20
2019-02-14T15:08:39.060Z,102930.86
2019-02-14T15:11:07.327Z,102933.93
2019-02-14T15:13:35.576Z,102928.28
2019-02-14T15:16:03.834Z,102927.30
2019-02-14T15:18:32.093Z,102933.12
2019-02-14T15:21:00.351Z,102927.23
2019-02-14T15:23:28.620Z,102924.67
2019-02-14T15:25:56.870Z,102931.80
2019-02-14T15:28:25.130Z,102927.02
2019-02-14T15:30:53.422Z,102925.34
2019-02-14T15:33:21.669Z,102929.71
2019-02-14T15:35:49.930Z,102929.07
2019-02-14T15:38:18.177Z,102928.18
2019-02-14T15:40:46.445Z,102921.64
2019-02-14T15:43:15.078Z,102932.34
2019-02-14T15:45:43.340Z,102936.52
2019-02-14T15:48:11.618Z,102931.37
2019-02-14T15:50:39.991Z,102929.17
2019-02-14T15:53:08.221Z,102930.60
2019-02-14T15:55:38.540Z,102934.23
2019-02-14T15:58:07.178Z,102933.44
2019-02-14T16:00:36.474Z,102932.13
2019-02-14T16:03:04.723Z,102927.91
2019-02-14T16:05:32.980Z,102941.02
2019-02-14T16:08:02.909Z,102935.16
2019-02-14T16:10:31.480Z,102940.73
2019-02-14T16:13:13.976Z,102940.94
2019-02-14T16:15:42.232Z,102940.27
2019-02-14T16:18:10.521Z,102932.18
2019-02-14T16:20:40.383Z,102940.44
2019-02-14T16:23:21.376Z,102920.70
2019-02-14T16:25:51.534Z,102920.70
2019-02-14T16:28:19.623Z,102934.34
2019-02-14T16:30:47.892Z,102942.67
2019-02-14T16:33:16.132Z,102942.34
2019-02-14T16:35:44.392Z,102949.58
2019-02-14T16:38:14.054Z,102954.43
2019-02-14T16:40:42.622Z,102954.56
2019-02-14T16:43:10.885Z,102954.25
2019-02-14T16:45:39.169Z,102957.85
2019-02-14T16:48:07.433Z,102951.87
2019-02-14T16:50:35.708Z,102951.59
2019-02-14T16:53:03.964Z,102949.38
2019-02-14T16:55:51.771Z,102950.34
2019-02-14T16:58:20.177Z,102952.11
2019-02-14T17:00:48.477Z,102957.34
2019-02-14T17:03:16.688Z,102953.85
2019-02-14T17:05:44.941Z,102950.88
2019-02-14T17:08:13.226Z,102950.08
2019-02-14T17:10:41.486Z,102955.95
2019-02-14T17:13:09.741Z,102953.38
2019-02-14T17:15:37.998Z,102951.70
2019-02-14T17:18:06.263Z,102956.04
2019-02-14T17:20:34.519Z,102959.16
2019-02-14T17:23:02.776Z,102956.55
2019-02-14T17:25:31.026Z,102959.08
2019-02-14T17:27:59.288Z,102962.53
2019-02-14T17:30:27.544Z,102959.87
2019-02-14T17:32:55.799Z,102955.18
2019-02-14T17:35:24.065Z,102952.32
2019-02-14T17:37:52.326Z,102957.14
2019-02-14T17:40:20.575Z,102954.97
2019-02-14T17:42:48.848Z,102964.11
2019-02-14T17:45:17.107Z,102963.23
2019-02-14T17:47:45.375Z,102956.74
2019-02-14T17:50:13.647Z,102958.91
2019-02-14T17:52:41.899Z,102960.23
2019-02-14T17:55:50.182Z,102961.95
2019-02-14T17:58:18.444Z,102967.14
2019-02-14T18:00:46.700Z,102957.22
2019-02-14T18:03:14.949Z,102957.63
2019-02-14T18:05:43.208Z,102956.77
2019-02-14T18:08:11.471Z,102959.77
2019-02-14T18:10:39.720Z,102956.74
2019-02-14T18:13:07.981Z,102955.87
2019-02-14T18:15:36.241Z,102968.89
2019-02-14T18:18:04.550Z,102960.25
2019-02-14T18:20:32.759Z,102957.22
2019-02-14T18:23:01.049Z,102956.77
2019-02-14T18:25:29.307Z,102959.33
2019-02-14T18:27:57.577Z,102964.12
2019-02-14T18:30:25.830Z,102962.78
2019-02-14T18:32:54.100Z,102971.45
2019-02-14T18:35:22.366Z,102963.20
2019-02-14T18:37:50.648Z,102966.26
2019-02-14T18:40:18.903Z,102964.49
2019-02-14T18:43:27.190Z,102969.25
2019-02-14T18:45:55.441Z,102960.59
2019-02-14T18:48:23.709Z,102958.86
2019-02-14T18:50:51.958Z,102958.85
2019-02-14T18:53:20.218Z,102954.09
2019-02-14T18:55:48.472Z,102961.42
2019-02-14T18:58:25.837Z,102960.11
2019-02-14T19:00:46.699Z,102967.04
2019-02-14T19:03:14.952Z,102966.09
2019-02-14T19:05:43.209Z,102964.77
2019-02-14T19:08:11.469Z,102961.74
2019-02-14T19:10:59.071Z,102968.27
2019-02-14T19:13:27.316Z,102968.27
2019-02-14T19:15:55.575Z,102969.17
2019-02-14T19:18:23.844Z,102972.64
2019-02-14T19:20:52.118Z,102969.99
2019-02-14T19:23:23.954Z,102975.20
2019-02-14T19:25:50.636Z,102967.40
2019-02-14T19:28:18.903Z,102969.56
2019-02-14T19:30:47.162Z,102975.63
2019-02-14T19:33:15.451Z,102973.44
2019-02-14T19:36:02.827Z,102967.38
2019-02-14T19:38:31.087Z,102964.36
2019-02-14T19:40:59.359Z,102963.52
2019-02-14T19:43:27.615Z,102965.23
2019-02-14T19:45:55.869Z,102963.08
2019-02-14T19:48:24.143Z,102963.05
2019-02-14T19:50:52.414Z,102964.36
2019-02-14T19:53:20.660Z,102960.48
2019-02-14T19:55:48.950Z,102957.45
2019-02-14T19:58:17.161Z,102951.41
2019-02-14T20:00:45.425Z,102946.22
2019-02-14T20:03:13.686Z,102950.53
2019-02-14T20:05:41.950Z,102945.30
2019-02-14T20:08:10.236Z,102941.84
2019-02-14T20:10:38.503Z,102931.51
2019-02-14T20:13:06.779Z,102933.25
2019-02-14T20:15:37.543Z,102933.69
2019-02-14T20:18:05.009Z,102927.63
2019-02-14T20:20:33.271Z,102940.16
2019-02-14T20:23:01.542Z,102934.11
2019-02-14T20:26:03.298Z,102939.31
2019-02-14T20:28:31.573Z,102941.47
2019-02-14T20:30:59.823Z,102947.05
2019-02-14T20:33:28.997Z,102945.75
2019-02-14T20:35:57.306Z,102948.34
2019-02-14T20:38:25.525Z,102944.86
2019-02-14T20:40:53.773Z,102945.70
2019-02-14T20:43:22.051Z,102951.74
2019-02-14T20:45:50.316Z,102956.47
2019-02-14T20:48:18.598Z,102956.00
2019-02-14T20:50:46.849Z,102961.16
2019-02-14T20:53:15.112Z,102964.20
2019-02-14T20:55:43.391Z,102966.27
2019-02-14T20:58:11.653Z,102965.35
2019-02-14T21:00:40.051Z,102969.16
2019-02-14T21:03:08.309Z,102975.98
2019-02-14T21:05:36.573Z,102974.68
2019-02-14T21:08:04.831Z,102975.09
2019-02-14T21:13:42.037Z,102977.22
2019-02-14T21:16:10.292Z,102978.47
2019-02-14T21:18:38.544Z,102975.42
2019-02-14T21:21:06.816Z,102976.28
2019-02-14T21:23:35.118Z,102976.35
2019-02-14T21:26:03.351Z,102973.36
2019-02-14T21:28:31.601Z,102982.91
2019-02-14T21:30:59.873Z,102978.94
2019-02-14T21:33:28.132Z,102976.77
2019-02-14T21:35:56.395Z,102975.85
2019-02-14T21:38:24.679Z,102974.14
2019-02-14T21:40:52.952Z,102976.73
2019-02-14T21:43:21.182Z,102977.92
2019-02-14T21:45:49.455Z,102977.80
2019-02-14T21:48:17.714Z,102978.59
2019-02-14T21:50:46.114Z,102969.41
2019-02-14T21:53:14.309Z,102978.78
2019-02-14T21:55:42.945Z,102976.95
2019-02-14T21:58:11.193Z,102976.42
2019-02-14T22:00:39.467Z,102980.19
2019-02-14T22:03:07.710Z,102984.84
2019-02-14T22:05:35.977Z,102986.16
2019-02-14T22:08:04.255Z,102990.08
2019-02-14T22:10:32.516Z,102986.94
2019-02-14T22:13:00.770Z,102981.20
2019-02-14T22:16:02.891Z,102982.81
2019-02-14T22:18:31.137Z,102981.96
2019-02-14T22:20:59.401Z,102984.03
2019-02-14T22:23:27.677Z,102989.25
2019-02-14T22:25:55.932Z,102989.14
2019-02-14T22:28:24.192Z,102985.92
2019-02-14T22:30:52.467Z,102990.58
2019-02-14T22:33:20.717Z,102987.15
2019-02-14T22:35:48.976Z,102989.23
2019-02-14T22:38:17.248Z,102988.37
2019-02-14T22:40:45.499Z,102979.78
2019-02-14T22:43:13.764Z,102984.81
2019-02-14T22:45:42.021Z,102984.00
2019-02-14T22:48:10.292Z,102986.13
2019-02-14T22:50:38.544Z,102981.91
2019-02-14T22:53:06.815Z,102988.69
2019-02-14T22:55:35.092Z,102985.97
2019-02-14T22:58:03.368Z,102987.15
2019-02-14T23:01:11.641Z,102991.42
2019-02-14T23:03:40.303Z,102987.13
2019-02-14T23:06:08.579Z,102984.44
2019-02-14T23:08:36.840Z,102983.89
2019-02-14T23:11:05.097Z,102978.17
2019-02-14T23:13:33.372Z,102977.64
2019-02-14T23:16:01.628Z,102978.03
2019-02-14T23:18:29.901Z,102988.83
2019-02-14T23:20:58.160Z,102994.86
2019-02-14T23:23:26.426Z,102981.94
2019-02-14T23:25:54.704Z,102982.27
2019-02-14T23:28:22.961Z,102984.40
2019-02-14T23:30:51.230Z,102989.62
2019-02-14T23:33:19.479Z,102974.95
2019-02-14T23:35:47.731Z,102979.58
2019-02-14T23:38:15.991Z,102979.91
2019-02-14T23:40:44.268Z,102982.02
2019-02-14T23:43:12.528Z,102978.63
2019-02-14T23:45:40.802Z,102986.63
2019-02-14T23:48:09.057Z,102981.90
2019-02-14T23:50:37.355Z,102980.22
2019-02-14T23:53:05.608Z,102978.14
2019-02-14T23:55:33.868Z,102981.20
2019-02-14T23:58:02.134Z,102979.98
